Hlavní strana
METAR-TAF:

METAR-TAF

Letiště :

Letiště Mnichov

Mnichov, Německo

zeměpisná šířka: 48-21N, zeměpisná délka: 011-47E, výška: 453 m

Aktuální stav počasí

Zpráva byla vytvořena před 16 minutami, v 15:20 UTC
Severoseverozápadní vítr 8 kt, proměnlivý mezi západoseverozápadním a severním
Teplota 7°C
Vlhkost vzduchu 49%
Tlak 1027 hPa
Viditelnost 10 km a více
Skoro jasno ve výšce 4500 ft

METAR: EDDM 191520Z 34008KT 300V010 9999 FEW045 07/M03 Q1027 NOSIG

Čas: 16:36 (15:36 UTC)

Předpověď počasí

Zpráva byla vytvořena před 4 hodinami a 36 minutami, v 11:00 UTC
Předpověď platná od 19 v 12 UTC do 20 v 18 UTC
Severozápadní vítr 5 kt
Viditelnost 10 km a více
Skoro jasno ve výšce 3000 ft
Změna
od 19 v 17 UTC do 19 v 19 UTC
vítr z různých směrů 2 kt
Dočasný
od 20 v 02 UTC do 20 v 07 UTC
Viditelnost: 4000 m
chuchvalce mlhy
Změna
od 20 v 08 UTC do 20 v 10 UTC
Východní vítr 5 kt

TAF: EDDM 191100Z 1912/2018 32005KT 9999 FEW030 BECMG 1917/1919 VRB02KT TEMPO 2002/2007 4000 BCFG BECMG 2008/2010 08005KT

Stav a předpovědi počasí z více než 4 000 letišť (zprávy METAR a TAF).

Červené a žluté tečky na mapě představují dostupné meteorologické stanice.

Když kurzor umístíte na tečku, zobrazí se název stanice.

Pak kliknutím zobrazíte stav a předpověď počasí.

Chcete-li změnit mapu, kliknutím na zelené tlačítko se znaménkem +mapu přiblížíte, kliknutím na zelené tlačítko se znaménkem – mapu oddálíte a kliknutím na zelené šipky přejdete na sousední mapy.


METAR-TAF: